Time;durP1;ratioP1;P1;durP2;ratioP2;P2;SDS_P1;SDS_P2;PMS_P1;PMS_P2;Temp;Humidity;BMP_temperature;BMP_pressure;BME280_temperature;BME280_humidity;BME280_pressure;Samples;Min_cycle;Max_cycle;Signal;HPM_P1;HPM_P2
2023/06/06 00:00:41;;;;;;;2.15;1.20;;;18.00;90.10;;;;;;5066876;28;20032;-75
2023/06/06 00:03:06;;;;;;;2.90;1.42;;;18.00;90.20;;;;;;5068343;28;20032;-74
2023/06/06 00:05:33;;;;;;;2.13;1.50;;;18.00;90.20;;;;;;5067020;28;20439;-74
2023/06/06 00:07:59;;;;;;;4.07;1.70;;;18.00;90.20;;;;;;5063654;28;20028;-74
2023/06/06 00:10:25;;;;;;;2.72;1.52;;;17.90;90.20;;;;;;5067658;28;20124;-74
2023/06/06 00:12:54;;;;;;;2.33;1.73;;;17.90;90.30;;;;;;5066964;28;20503;-74
2023/06/06 00:15:20;;;;;;;2.60;1.30;;;17.90;90.20;;;;;;5066831;28;21117;-73
2023/06/06 00:17:48;;;;;;;2.00;1.70;;;17.90;90.20;;;;;;5062998;28;20099;-75
2023/06/06 00:20:14;;;;;;;4.78;1.42;;;17.90;90.20;;;;;;5069538;28;20028;-74
2023/06/06 00:22:41;;;;;;;3.15;1.42;;;17.80;90.10;;;;;;5065473;28;20028;-75
2023/06/06 00:25:07;;;;;;;4.35;1.98;;;17.80;90.30;;;;;;5065527;28;20017;-73
2023/06/06 00:27:34;;;;;;;2.35;1.60;;;17.70;90.40;;;;;;5067285;28;20028;-75
2023/06/06 00:30:01;;;;;;;3.92;1.92;;;17.80;90.50;;;;;;5065175;28;20025;-75
2023/06/06 00:32:27;;;;;;;1.88;1.38;;;17.70;90.50;;;;;;5066672;28;20434;-75
2023/06/06 00:34:54;;;;;;;4.18;1.75;;;17.70;90.50;;;;;;5070099;28;20029;-73
2023/06/06 00:37:19;;;;;;;1.77;1.33;;;17.70;90.50;;;;;;5068491;28;20475;-75
2023/06/06 00:39:45;;;;;;;2.92;1.50;;;17.60;90.40;;;;;;5064191;28;20036;-74
2023/06/06 00:42:11;;;;;;;2.17;1.70;;;17.60;90.40;;;;;;5069738;28;20036;-75
2023/06/06 00:44:36;;;;;;;3.72;1.73;;;17.60;90.50;;;;;;5064605;28;20025;-74
2023/06/06 00:47:03;;;;;;;2.97;1.48;;;17.50;90.70;;;;;;5065363;28;20124;-74
2023/06/06 00:49:29;;;;;;;1.95;1.70;;;17.50;90.70;;;;;;5063988;28;20016;-74
2023/06/06 00:51:55;;;;;;;3.08;1.65;;;17.50;90.80;;;;;;5062523;28;20361;-74
2023/06/06 00:54:21;;;;;;;3.22;1.65;;;17.50;90.80;;;;;;5068300;28;20033;-74
2023/06/06 00:56:49;;;;;;;2.90;1.83;;;17.40;90.70;;;;;;5067610;28;20029;-74
2023/06/06 00:59:16;;;;;;;1.88;1.40;;;17.30;90.50;;;;;;5070937;28;20418;-74
2023/06/06 01:01:42;;;;;;;2.42;1.58;;;17.30;90.40;;;;;;5062543;28;20146;-75
2023/06/06 01:04:10;;;;;;;2.10;1.73;;;17.30;90.30;;;;;;5066128;28;20041;-75
2023/06/06 01:06:37;;;;;;;4.32;1.85;;;17.30;90.20;;;;;;5068801;28;20521;-74
2023/06/06 01:09:05;;;;;;;3.97;1.65;;;17.30;90.30;;;;;;5066004;28;20146;-74
2023/06/06 01:11:46;;;;;;;2.83;1.70;;;17.30;90.30;;;;;;5065989;28;20034;-74
2023/06/06 01:14:35;;;;;;;2.38;1.35;;;17.20;90.30;;;;;;5064478;28;20486;-75
2023/06/06 01:17:03;;;;;;;2.25;1.60;;;17.20;90.40;;;;;;5067361;28;20032;-74
2023/06/06 01:19:29;;;;;;;3.05;1.90;;;17.20;90.50;;;;;;5063718;28;20479;-75
2023/06/06 01:21:59;;;;;;;3.53;1.80;;;17.10;90.60;;;;;;5064936;28;20048;-74
2023/06/06 01:24:27;;;;;;;3.10;1.92;;;17.00;90.70;;;;;;5062881;28;20024;-74
2023/06/06 01:26:54;;;;;;;2.08;1.40;;;17.00;90.80;;;;;;5066733;28;20108;-74
2023/06/06 01:29:20;;;;;;;2.28;1.63;;;17.00;90.80;;;;;;5069079;28;20025;-73
2023/06/06 01:32:12;;;;;;;2.97;1.75;;;17.00;90.90;;;;;;5063584;28;20032;-74
2023/06/06 01:35:06;;;;;;;1.70;1.50;;;16.90;90.90;;;;;;5062512;28;20040;-74
2023/06/06 01:38:08;;;;;;;3.97;1.77;;;16.90;90.90;;;;;;5060629;28;20075;-74
2023/06/06 01:40:36;;;;;;;2.78;2.10;;;16.80;91.00;;;;;;5042862;28;20055;-74
2023/06/06 01:43:06;;;;;;;2.00;1.80;;;16.80;91.00;;;;;;5064336;28;20031;-74
2023/06/06 01:45:33;;;;;;;3.55;3.15;;;16.70;91.10;;;;;;5080749;28;20039;-74
2023/06/06 01:47:59;;;;;;;5.30;2.50;;;16.70;91.20;;;;;;5064575;28;20028;-74
2023/06/06 01:50:25;;;;;;;4.03;2.08;;;16.70;91.30;;;;;;5063903;28;20039;-74
2023/06/06 01:52:55;;;;;;;3.88;1.80;;;16.60;91.30;;;;;;5063216;28;20024;-75
2023/06/06 01:55:21;;;;;;;1.90;1.67;;;16.60;91.40;;;;;;5065612;28;20539;-74
2023/06/06 01:57:47;;;;;;;1.60;1.42;;;16.50;91.50;;;;;;5066344;28;20185;-74
2023/06/06 02:00:12;;;;;;;3.25;1.98;;;16.60;91.50;;;;;;5061375;28;20020;-74
2023/06/06 02:02:38;;;;;;;3.42;1.90;;;16.50;91.50;;;;;;5064554;28;20032;-75
2023/06/06 02:05:04;;;;;;;2.20;1.83;;;16.50;91.60;;;;;;5065183;28;20032;-75
2023/06/06 02:07:30;;;;;;;4.75;1.67;;;16.50;91.70;;;;;;5060452;28;20041;-74
2023/06/06 02:09:57;;;;;;;2.50;1.90;;;16.50;91.70;;;;;;5064781;28;20068;-74
2023/06/06 02:12:22;;;;;;;2.35;1.50;;;16.40;91.90;;;;;;5063934;28;20541;-74
2023/06/06 02:14:48;;;;;;;3.17;1.80;;;16.40;92.00;;;;;;5061492;28;20047;-74
2023/06/06 02:17:14;;;;;;;4.47;2.20;;;16.30;92.10;;;;;;5066932;28;20048;-74
2023/06/06 02:19:40;;;;;;;3.00;1.98;;;16.30;92.10;;;;;;5061002;28;20028;-74
2023/06/06 02:22:06;;;;;;;3.13;2.17;;;16.30;92.30;;;;;;5058368;28;20104;-75
2023/06/06 02:24:33;;;;;;;3.63;1.92;;;16.20;92.30;;;;;;5064492;28;20055;-74
2023/06/06 02:26:59;;;;;;;2.50;1.73;;;16.20;92.40;;;;;;5061076;28;20025;-74
2023/06/06 02:29:24;;;;;;;3.15;1.88;;;16.20;92.40;;;;;;5066781;28;20025;-74
2023/06/06 02:31:51;;;;;;;2.33;1.80;;;16.20;92.40;;;;;;5066826;28;20030;-74
2023/06/06 02:34:17;;;;;;;2.25;1.90;;;16.20;92.40;;;;;;5066249;28;20101;-75
2023/06/06 02:36:43;;;;;;;5.32;1.92;;;16.10;92.50;;;;;;5063287;28;20033;-74
2023/06/06 02:39:09;;;;;;;3.28;2.10;;;16.10;92.60;;;;;;5064141;28;20020;-74
2023/06/06 02:41:35;;;;;;;2.70;1.65;;;16.10;92.60;;;;;;5062986;28;20418;-74
2023/06/06 02:44:00;;;;;;;3.35;2.15;;;16.00;92.60;;;;;;5066360;28;20024;-75
2023/06/06 02:46:27;;;;;;;2.47;1.60;;;16.00;92.60;;;;;;5063188;28;20059;-74
2023/06/06 02:48:53;;;;;;;2.45;1.75;;;15.90;92.60;;;;;;5064591;28;20635;-75
2023/06/06 02:51:23;;;;;;;2.15;1.67;;;15.90;92.60;;;;;;5066246;28;20075;-75
2023/06/06 02:53:51;;;;;;;3.58;2.00;;;15.80;92.70;;;;;;5060950;28;20025;-74
2023/06/06 02:56:17;;;;;;;2.95;2.03;;;15.80;92.80;;;;;;5060998;28;20097;-74
2023/06/06 02:58:43;;;;;;;2.50;1.80;;;15.70;92.80;;;;;;5065604;28;20419;-74
2023/06/06 03:01:12;;;;;;;2.80;1.85;;;15.70;92.70;;;;;;5063667;28;20029;-73
2023/06/06 03:03:38;;;;;;;2.50;1.83;;;15.70;92.80;;;;;;5066674;28;20077;-74
2023/06/06 03:06:06;;;;;;;2.30;1.92;;;15.60;93.00;;;;;;5065211;28;20060;-74
2023/06/06 03:08:33;;;;;;;2.60;1.80;;;15.60;93.00;;;;;;5067040;28;20029;-75
2023/06/06 03:10:58;;;;;;;3.03;1.90;;;15.50;92.90;;;;;;5064771;28;20076;-75
2023/06/06 03:13:24;;;;;;;3.38;2.05;;;15.50;93.10;;;;;;5064857;28;20029;-75
2023/06/06 03:15:50;;;;;;;3.55;2.05;;;15.40;93.30;;;;;;5068651;28;20039;-74
2023/06/06 03:18:17;;;;;;;5.13;2.60;;;15.40;93.40;;;;;;5063809;28;20277;-74
2023/06/06 03:20:48;;;;;;;2.35;1.70;;;15.40;93.40;;;;;;5063415;28;20123;-74
2023/06/06 03:23:14;;;;;;;4.50;2.22;;;15.40;93.60;;;;;;5063744;28;20545;-75
2023/06/06 03:25:41;;;;;;;2.28;1.65;;;15.40;93.50;;;;;;5066735;28;20017;-74
2023/06/06 03:28:07;;;;;;;9.18;2.85;;;15.40;93.60;;;;;;5067883;28;20036;-74
2023/06/06 03:30:32;;;;;;;4.32;2.08;;;15.40;93.70;;;;;;5064804;28;20424;-74
2023/06/06 03:33:00;;;;;;;3.70;2.40;;;15.40;93.70;;;;;;5065918;28;20044;-74
2023/06/06 03:35:30;;;;;;;5.75;2.30;;;15.30;93.80;;;;;;5064616;28;20032;-74
2023/06/06 03:37:57;;;;;;;3.80;2.50;;;15.30;93.90;;;;;;5065993;28;20032;-74
2023/06/06 03:40:23;;;;;;;3.83;2.28;;;15.30;93.90;;;;;;5067624;28;20028;-75
2023/06/06 03:42:50;;;;;;;3.20;2.20;;;15.30;93.80;;;;;;5061553;28;20028;-75
2023/06/06 03:45:19;;;;;;;3.38;2.30;;;15.30;93.80;;;;;;5062377;28;20017;-78
2023/06/06 03:47:45;;;;;;;3.80;2.53;;;15.30;93.80;;;;;;5062977;28;20017;-74
2023/06/06 03:50:11;;;;;;;3.00;2.13;;;15.20;93.80;;;;;;5066081;28;20142;-75
2023/06/06 03:52:38;;;;;;;5.53;2.70;;;15.20;93.90;;;;;;5064660;28;20107;-74
2023/06/06 03:55:04;;;;;;;2.97;1.98;;;15.20;93.90;;;;;;5064503;28;20032;-74
2023/06/06 03:57:30;;;;;;;4.80;2.60;;;15.20;93.90;;;;;;5068147;28;20483;-75
2023/06/06 03:59:55;;;;;;;4.45;2.40;;;15.20;94.00;;;;;;5063340;28;20020;-75
2023/06/06 04:02:21;;;;;;;4.25;2.63;;;15.20;94.10;;;;;;5064158;28;20032;-74
2023/06/06 04:04:50;;;;;;;4.03;2.40;;;15.20;94.00;;;;;;5065694;28;20048;-75
2023/06/06 04:07:16;;;;;;;3.95;1.95;;;15.10;94.00;;;;;;5057737;28;20108;-74
2023/06/06 04:09:42;;;;;;;3.15;2.35;;;15.10;94.00;;;;;;5066331;28;20108;-74
2023/06/06 04:12:08;;;;;;;3.95;2.22;;;15.20;94.00;;;;;;5060238;28;20029;-73
2023/06/06 04:14:34;;;;;;;4.65;2.30;;;15.10;94.10;;;;;;5060263;28;20535;-74
2023/06/06 04:17:01;;;;;;;4.28;2.55;;;15.20;94.00;;;;;;5064074;28;20035;-75
2023/06/06 04:19:27;;;;;;;4.88;2.65;;;15.20;94.00;;;;;;5055034;28;20098;-75
2023/06/06 04:21:54;;;;;;;6.53;2.50;;;15.20;94.10;;;;;;5060681;28;20548;-75
2023/06/06 04:24:20;;;;;;;4.03;2.40;;;15.20;94.00;;;;;;5063524;28;20083;-74
2023/06/06 04:26:46;;;;;;;5.63;2.47;;;15.20;94.00;;;;;;5066522;28;20032;-75
2023/06/06 04:29:13;;;;;;;3.88;2.35;;;15.20;94.00;;;;;;5065074;28;20599;-75
2023/06/06 04:31:40;;;;;;;6.45;2.85;;;15.20;94.00;;;;;;5064499;28;20040;-75
2023/06/06 04:34:09;;;;;;;5.10;2.58;;;15.30;94.00;;;;;;5069831;28;20020;-75
2023/06/06 04:36:38;;;;;;;4.38;2.70;;;15.40;93.90;;;;;;5067817;28;20107;-75
2023/06/06 04:39:05;;;;;;;4.75;2.58;;;15.40;93.80;;;;;;5085026;28;20025;-74
2023/06/06 04:41:31;;;;;;;4.40;2.72;;;15.50;93.70;;;;;;5067082;28;20109;-68
2023/06/06 04:43:58;;;;;;;5.03;2.85;;;15.50;93.70;;;;;;5067003;28;20124;-68
2023/06/06 04:46:24;;;;;;;8.65;2.58;;;15.60;93.60;;;;;;5069694;28;20143;-68
2023/06/06 04:48:53;;;;;;;3.20;2.10;;;15.70;93.40;;;;;;5067562;28;20123;-67
2023/06/06 04:51:29;;;;;;;6.63;2.88;;;15.70;93.50;;;;;;5068291;28;20029;-68
2023/06/06 04:53:59;;;;;;;3.47;2.30;;;15.80;93.50;;;;;;5073281;28;20035;-68
2023/06/06 04:56:28;;;;;;;3.88;2.30;;;15.80;93.40;;;;;;5072511;28;20033;-68
2023/06/06 04:58:54;;;;;;;4.30;2.28;;;15.80;93.30;;;;;;5072945;28;20021;-67
2023/06/06 05:01:20;;;;;;;3.70;2.33;;;15.90;93.10;;;;;;5073515;28;20020;-68
2023/06/06 05:03:46;;;;;;;4.20;2.50;;;16.00;93.10;;;;;;5073649;28;20025;-69
2023/06/06 05:06:12;;;;;;;3.80;2.90;;;16.00;93.10;;;;;;5077972;28;20052;-68
2023/06/06 05:08:41;;;;;;;7.78;2.50;;;16.10;93.00;;;;;;5090908;28;20470;-68
2023/06/06 05:11:07;;;;;;;2.90;2.20;;;16.10;92.80;;;;;;5067037;28;20059;-67
2023/06/06 05:13:33;;;;;;;3.80;2.72;;;16.00;93.00;;;;;;5073616;28;20070;-68
2023/06/06 05:16:00;;;;;;;4.25;2.00;;;16.10;92.90;;;;;;5074175;28;20016;-69
2023/06/06 05:18:25;;;;;;;3.90;2.20;;;16.20;92.90;;;;;;5072890;28;20547;-68
2023/06/06 05:20:51;;;;;;;4.20;2.53;;;16.20;92.90;;;;;;5073045;28;20046;-67
2023/06/06 05:23:17;;;;;;;3.83;2.05;;;16.40;92.80;;;;;;5072546;28;20467;-71
2023/06/06 05:25:42;;;;;;;4.15;2.08;;;16.50;92.70;;;;;;5070154;28;20021;-69
2023/06/06 05:28:11;;;;;;;4.22;2.72;;;16.60;92.40;;;;;;5063990;28;20031;-69
2023/06/06 05:30:36;;;;;;;3.30;2.53;;;16.70;92.30;;;;;;5068448;28;20102;-69
2023/06/06 05:33:03;;;;;;;3.55;2.50;;;16.80;92.10;;;;;;5073044;28;20031;-69
2023/06/06 05:35:28;;;;;;;4.38;2.83;;;16.90;92.00;;;;;;5072631;28;20387;-69
2023/06/06 05:37:54;;;;;;;4.68;2.95;;;17.00;91.80;;;;;;5074446;28;20021;-69
2023/06/06 05:40:19;;;;;;;5.43;3.22;;;17.10;91.80;;;;;;5068094;28;20025;-70
2023/06/06 05:42:45;;;;;;;4.35;2.78;;;17.10;91.60;;;;;;5052442;28;20024;-69
2023/06/06 05:45:11;;;;;;;3.22;2.47;;;17.00;91.80;;;;;;5062556;28;20078;-68
2023/06/06 05:47:36;;;;;;;3.95;2.88;;;17.00;92.10;;;;;;5064917;28;20028;-68
2023/06/06 05:50:02;;;;;;;4.75;3.22;;;17.00;92.40;;;;;;5066763;28;20060;-76
2023/06/06 05:52:28;;;;;;;5.20;2.78;;;17.00;92.50;;;;;;5066923;28;20021;-76
2023/06/06 05:55:05;;;;;;;5.20;3.20;;;17.00;92.60;;;;;;5065040;28;20100;-76
2023/06/06 05:57:31;;;;;;;9.38;4.22;;;17.10;92.70;;;;;;5065036;28;20373;-75
2023/06/06 06:00:00;;;;;;;3.92;3.15;;;17.10;92.50;;;;;;5067173;28;20028;-76
2023/06/06 06:02:28;;;;;;;5.75;3.42;;;17.00;92.40;;;;;;5064219;28;20051;-76
2023/06/06 06:04:56;;;;;;;5.90;3.22;;;17.10;92.50;;;;;;5071409;28;20640;-76
2023/06/06 06:07:22;;;;;;;8.27;4.05;;;17.10;92.60;;;;;;5067400;28;20036;-76
2023/06/06 06:09:48;;;;;;;6.22;3.70;;;17.10;92.70;;;;;;5063713;28;20459;-74
2023/06/06 06:12:13;;;;;;;6.32;3.78;;;17.10;92.70;;;;;;5067915;28;20040;-75
2023/06/06 06:14:39;;;;;;;8.60;4.35;;;17.20;92.70;;;;;;5063276;28;20122;-75
2023/06/06 06:17:04;;;;;;;5.00;3.25;;;17.20;92.60;;;;;;5061920;28;24622;-75
2023/06/06 06:19:30;;;;;;;5.50;3.53;;;17.20;92.60;;;;;;5065448;28;20029;-75
2023/06/06 06:21:56;;;;;;;4.70;3.08;;;17.20;92.60;;;;;;5060480;28;20035;-74
2023/06/06 06:24:21;;;;;;;5.10;3.40;;;17.30;92.70;;;;;;5081183;28;20450;-73
2023/06/06 06:26:48;;;;;;;6.50;3.60;;;17.40;92.70;;;;;;5059048;28;20020;-73
2023/06/06 06:29:13;;;;;;;8.40;3.42;;;17.40;92.80;;;;;;5064223;28;20025;-73
2023/06/06 06:31:39;;;;;;;5.80;3.63;;;17.50;92.70;;;;;;5062103;28;20065;-74
2023/06/06 06:34:04;;;;;;;7.63;3.72;;;17.60;92.50;;;;;;5066953;28;20498;-73
2023/06/06 06:36:30;;;;;;;6.65;3.53;;;17.60;92.30;;;;;;5061921;28;20590;-73
2023/06/06 06:38:56;;;;;;;5.38;3.30;;;17.70;92.20;;;;;;5060793;28;20031;-73
2023/06/06 06:41:23;;;;;;;6.05;3.25;;;17.70;92.00;;;;;;5068363;28;20042;-73
2023/06/06 06:43:50;;;;;;;10.80;3.42;;;17.80;92.00;;;;;;5064676;28;20028;-73
2023/06/06 06:46:16;;;;;;;7.03;3.67;;;17.90;92.00;;;;;;5063580;28;20725;-74
2023/06/06 06:48:45;;;;;;;7.65;3.75;;;17.90;91.90;;;;;;5064421;28;20143;-72
2023/06/06 06:51:13;;;;;;;6.88;3.55;;;17.90;91.90;;;;;;5066034;28;20031;-73
2023/06/06 06:53:39;;;;;;;5.50;3.53;;;17.90;92.00;;;;;;5063197;28;20025;-73
2023/06/06 06:56:05;;;;;;;4.88;3.40;;;17.90;92.10;;;;;;5066928;28;20082;-73
2023/06/06 06:58:33;;;;;;;4.38;3.47;;;18.00;92.10;;;;;;5066605;28;20468;-73
2023/06/06 07:01:02;;;;;;;4.25;3.22;;;18.00;92.30;;;;;;5067420;28;20115;-72
2023/06/06 07:03:28;;;;;;;4.55;3.10;;;18.00;92.40;;;;;;5076945;28;20495;-73
2023/06/06 07:05:54;;;;;;;4.00;2.90;;;18.00;92.50;;;;;;5068276;28;20062;-73
2023/06/06 07:08:20;;;;;;;5.05;3.38;;;17.90;92.70;;;;;;5068061;28;20395;-73
2023/06/06 07:10:46;;;;;;;4.65;3.05;;;17.90;92.80;;;;;;5066397;28;20081;-73
2023/06/06 07:13:15;;;;;;;5.07;3.08;;;17.90;92.80;;;;;;5064553;28;20029;-73
2023/06/06 07:15:41;;;;;;;4.47;3.40;;;18.00;92.80;;;;;;5068237;28;20039;-73
2023/06/06 07:18:06;;;;;;;5.22;3.25;;;18.00;92.90;;;;;;5063921;28;20041;-73
2023/06/06 07:20:33;;;;;;;7.15;3.70;;;18.00;92.90;;;;;;5061044;28;20036;-73
2023/06/06 07:22:59;;;;;;;7.10;3.75;;;18.00;93.00;;;;;;5062532;28;20021;-73
2023/06/06 07:25:24;;;;;;;7.25;3.72;;;18.00;92.90;;;;;;5063659;28;20035;-73
2023/06/06 07:27:50;;;;;;;6.82;3.60;;;18.00;92.80;;;;;;5064998;28;20163;-73
2023/06/06 07:30:16;;;;;;;8.25;4.10;;;18.00;92.60;;;;;;5064010;28;20387;-73
2023/06/06 07:32:43;;;;;;;4.10;2.92;;;18.00;92.50;;;;;;5065288;28;20079;-73
2023/06/06 07:35:11;;;;;;;6.80;3.20;;;18.20;91.90;;;;;;5064170;28;20028;-73
2023/06/06 07:37:37;;;;;;;4.80;2.83;;;18.10;91.70;;;;;;5068646;28;20033;-73
2023/06/06 07:40:05;;;;;;;4.05;2.90;;;18.20;91.30;;;;;;5061362;28;20017;-73
2023/06/06 07:42:32;;;;;;;4.05;2.75;;;18.30;91.40;;;;;;5063320;28;20032;-74
2023/06/06 07:44:58;;;;;;;3.63;2.53;;;18.30;91.40;;;;;;5062542;28;20036;-73
2023/06/06 07:47:24;;;;;;;5.22;3.35;;;18.40;91.40;;;;;;5067342;28;20472;-73
2023/06/06 07:49:52;;;;;;;4.93;2.92;;;18.40;91.30;;;;;;5061055;28;20024;-73
2023/06/06 07:52:18;;;;;;;3.90;2.60;;;18.50;91.20;;;;;;5063324;28;20076;-72
2023/06/06 07:54:44;;;;;;;3.20;2.45;;;18.50;90.90;;;;;;5064502;28;20575;-72
2023/06/06 07:57:11;;;;;;;4.72;2.53;;;18.60;90.60;;;;;;5067153;28;20475;-72
2023/06/06 07:59:38;;;;;;;5.72;3.28;;;18.60;90.20;;;;;;5066159;28;20028;-73
2023/06/06 08:02:04;;;;;;;4.63;2.83;;;18.70;90.20;;;;;;5067480;28;20025;-73
2023/06/06 08:04:29;;;;;;;3.83;2.60;;;18.70;90.00;;;;;;5067086;28;20055;-73
2023/06/06 08:06:55;;;;;;;4.78;2.67;;;18.90;89.40;;;;;;5068498;28;20025;-74
2023/06/06 08:09:22;;;;;;;4.68;2.20;;;19.00;88.50;;;;;;5066910;28;20031;-74
2023/06/06 08:11:47;;;;;;;3.85;2.22;;;19.10;87.20;;;;;;5064235;28;20031;-73
2023/06/06 08:14:13;;;;;;;3.75;1.98;;;19.20;85.40;;;;;;5070083;28;20025;-73
2023/06/06 08:16:39;;;;;;;5.40;2.20;;;19.30;85.00;;;;;;5065468;28;20090;-73
2023/06/06 08:19:04;;;;;;;7.65;2.70;;;19.30;85.30;;;;;;5070368;28;20021;-73
2023/06/06 08:21:30;;;;;;;5.45;2.28;;;19.40;84.40;;;;;;5068402;28;20043;-73
2023/06/06 08:23:57;;;;;;;6.28;2.60;;;19.50;83.80;;;;;;5064922;28;20845;-73
2023/06/06 08:26:25;;;;;;;7.00;2.78;;;19.60;82.60;;;;;;5068967;28;20028;-73
2023/06/06 08:28:51;;;;;;;5.78;2.50;;;19.60;81.30;;;;;;5073132;28;20025;-73
2023/06/06 08:31:18;;;;;;;5.18;2.40;;;19.70;81.50;;;;;;5063830;28;20033;-73
2023/06/06 08:33:45;;;;;;;5.57;3.38;;;19.80;81.10;;;;;;5066950;28;20021;-73
2023/06/06 08:36:11;;;;;;;4.18;2.35;;;19.80;80.10;;;;;;5070325;28;20016;-73
2023/06/06 08:38:38;;;;;;;4.00;2.42;;;19.90;79.90;;;;;;5068966;28;20024;-73
2023/06/06 08:41:05;;;;;;;4.55;2.25;;;20.00;79.20;;;;;;5065713;28;20056;-73
2023/06/06 08:43:36;;;;;;;5.57;2.47;;;20.20;78.40;;;;;;5070002;28;20036;-73
2023/06/06 08:46:02;;;;;;;6.70;2.55;;;20.20;76.50;;;;;;5069785;28;20024;-73
2023/06/06 08:48:29;;;;;;;3.22;2.20;;;20.30;76.80;;;;;;5066109;28;20112;-73
2023/06/06 08:50:59;;;;;;;4.78;2.33;;;20.30;76.40;;;;;;5068218;28;20025;-72
2023/06/06 08:53:26;;;;;;;3.05;2.10;;;20.40;75.70;;;;;;5070129;28;20032;-73
2023/06/06 08:55:55;;;;;;;4.32;2.30;;;20.40;75.50;;;;;;5062909;28;21180;-72
2023/06/06 08:58:21;;;;;;;2.80;1.85;;;20.50;75.10;;;;;;5075743;28;20035;-72
2023/06/06 09:00:49;;;;;;;6.50;2.42;;;20.50;75.30;;;;;;5072574;28;20037;-72
2023/06/06 09:03:17;;;;;;;5.00;2.35;;;20.60;72.90;;;;;;5071313;28;20104;-72
2023/06/06 09:05:43;;;;;;;3.53;1.67;;;20.60;72.60;;;;;;5070539;28;20023;-73
2023/06/06 09:08:09;;;;;;;5.80;2.40;;;20.70;73.30;;;;;;5066769;28;20538;-72
2023/06/06 09:10:35;;;;;;;5.95;2.45;;;20.70;72.30;;;;;;5067908;28;20108;-73
2023/06/06 09:13:01;;;;;;;4.93;2.63;;;20.80;71.50;;;;;;5066985;28;20064;-73
2023/06/06 09:15:27;;;;;;;3.33;2.13;;;20.80;71.70;;;;;;5067785;28;20027;-73
2023/06/06 09:17:54;;;;;;;4.38;2.17;;;20.80;72.00;;;;;;5065000;28;20506;-72
2023/06/06 09:20:22;;;;;;;4.40;2.25;;;20.90;71.90;;;;;;5062279;28;20016;-72
2023/06/06 09:22:49;;;;;;;3.15;2.30;;;20.90;71.00;;;;;;5068824;28;20148;-72
2023/06/06 09:25:18;;;;;;;4.05;2.88;;;20.90;71.30;;;;;;5069476;28;20024;-72
2023/06/06 09:27:45;;;;;;;5.35;2.55;;;21.00;70.20;;;;;;5066448;28;20021;-72
2023/06/06 09:30:27;;;;;;;5.35;2.58;;;21.00;70.60;;;;;;5070178;28;20023;-72
2023/06/06 09:32:56;;;;;;;4.28;2.40;;;21.10;71.00;;;;;;5066511;28;20674;-72
2023/06/06 09:35:22;;;;;;;5.18;2.53;;;21.00;70.80;;;;;;5066236;28;20025;-73
2023/06/06 09:37:49;;;;;;;5.53;2.53;;;21.10;70.20;;;;;;5068335;28;20215;-73
2023/06/06 09:40:18;;;;;;;5.38;2.78;;;21.10;69.80;;;;;;5065037;28;20033;-73
2023/06/06 09:42:48;;;;;;;5.72;2.72;;;21.30;69.80;;;;;;5068558;28;20101;-73
2023/06/06 09:45:19;;;;;;;3.33;2.72;;;21.30;70.10;;;;;;5066108;28;20024;-73
2023/06/06 09:47:48;;;;;;;4.13;2.70;;;21.30;70.40;;;;;;5067311;28;20028;-72
2023/06/06 09:50:16;;;;;;;4.93;2.90;;;21.30;71.70;;;;;;5066513;28;20697;-72
2023/06/06 09:52:42;;;;;;;6.00;3.03;;;21.30;71.30;;;;;;5070680;28;20028;-72
2023/06/06 09:55:09;;;;;;;6.03;2.75;;;21.30;71.30;;;;;;5068742;28;20024;-72
2023/06/06 09:57:37;;;;;;;5.22;2.70;;;21.30;71.10;;;;;;5066575;28;20024;-73
2023/06/06 10:00:14;;;;;;;4.18;2.80;;;21.30;71.10;;;;;;5069429;28;20047;-72
2023/06/06 10:02:45;;;;;;;4.28;2.65;;;21.40;70.90;;;;;;5072053;28;20021;-73
2023/06/06 10:05:13;;;;;;;6.15;2.50;;;21.40;70.70;;;;;;5060607;28;20392;-73
2023/06/06 10:07:41;;;;;;;5.50;3.25;;;21.40;71.10;;;;;;5069412;28;20054;-73
2023/06/06 10:10:11;;;;;;;5.20;3.22;;;21.40;71.20;;;;;;5072280;28;20016;-72
2023/06/06 10:12:39;;;;;;;5.63;2.95;;;21.50;70.70;;;;;;5063145;28;20020;-73
2023/06/06 10:15:07;;;;;;;6.57;3.20;;;21.50;70.00;;;;;;5065199;28;20021;-72
2023/06/06 10:17:35;;;;;;;3.92;3.20;;;21.60;70.80;;;;;;5068244;28;20040;-73
2023/06/06 10:20:06;;;;;;;4.47;3.20;;;21.60;71.50;;;;;;5069959;28;20030;-73
2023/06/06 10:22:35;;;;;;;6.22;3.50;;;21.60;71.60;;;;;;5060461;28;20047;-73
2023/06/06 10:25:08;;;;;;;6.47;3.15;;;21.60;71.70;;;;;;5066358;28;20029;-73
2023/06/06 10:27:43;;;;;;;5.20;3.20;;;21.70;71.70;;;;;;5062459;28;20025;-74
2023/06/06 10:30:23;;;;;;;5.15;2.88;;;21.70;71.70;;;;;;5065577;28;20410;-75
2023/06/06 10:33:25;;;;;;;8.38;3.70;;;21.70;71.40;;;;;;5065370;28;20025;-76
2023/06/06 10:35:59;;;;;;;4.93;3.40;;;21.70;71.00;;;;;;5067124;28;20095;-74
2023/06/06 10:38:24;;;;;;;6.70;2.80;;;21.70;70.30;;;;;;5065273;28;20436;-75
2023/06/06 10:40:53;;;;;;;5.90;3.28;;;21.80;70.60;;;;;;5064241;28;20082;-74
2023/06/06 10:43:37;;;;;;;5.50;3.38;;;21.80;70.40;;;;;;5065882;28;20036;-75
2023/06/06 10:46:03;;;;;;;6.20;3.47;;;21.80;70.80;;;;;;5079934;28;20085;-75
2023/06/06 10:48:55;;;;;;;4.60;2.78;;;21.80;70.10;;;;;;5064059;28;20537;-76
2023/06/06 10:51:24;;;;;;;6.63;3.20;;;21.90;70.10;;;;;;5064760;28;20032;-77
2023/06/06 10:54:15;;;;;;;5.60;3.00;;;21.90;70.30;;;;;;5066500;28;20032;-75
2023/06/06 10:56:54;;;;;;;5.38;3.33;;;21.90;70.30;;;;;;5063711;28;20025;-76
2023/06/06 10:59:31;;;;;;;4.53;3.33;;;21.90;70.20;;;;;;5065674;28;20036;-75
2023/06/06 11:01:58;;;;;;;7.70;3.30;;;22.00;70.00;;;;;;5061282;28;20024;-76
2023/06/06 11:04:25;;;;;;;7.65;3.30;;;22.00;69.10;;;;;;5065096;28;20028;-76
2023/06/06 11:06:53;;;;;;;5.93;3.40;;;22.00;68.00;;;;;;5062771;28;20029;-76
2023/06/06 11:09:20;;;;;;;4.93;3.35;;;22.00;68.90;;;;;;5065922;28;20025;-76
2023/06/06 11:11:46;;;;;;;8.82;3.08;;;22.10;69.40;;;;;;5060936;28;20093;-76
2023/06/06 11:14:11;;;;;;;4.07;3.10;;;22.10;68.80;;;;;;5079377;28;20028;-75
2023/06/06 11:16:40;;;;;;;5.22;3.60;;;22.10;68.50;;;;;;5064563;28;20035;-76
2023/06/06 11:19:08;;;;;;;5.20;2.63;;;22.10;68.10;;;;;;5062641;28;20028;-75
2023/06/06 11:21:37;;;;;;;5.38;3.67;;;22.20;67.40;;;;;;5063922;28;20137;-76
2023/06/06 11:24:04;;;;;;;5.57;2.90;;;22.20;67.60;;;;;;5064429;28;20017;-75
2023/06/06 11:26:30;;;;;;;8.63;3.78;;;22.20;68.20;;;;;;5062840;28;20029;-76
2023/06/06 11:28:56;;;;;;;4.22;2.75;;;22.20;67.90;;;;;;5066585;28;20103;-76
2023/06/06 11:31:26;;;;;;;5.60;3.00;;;22.20;68.60;;;;;;5062391;28;20122;-77
2023/06/06 11:33:52;;;;;;;3.72;2.72;;;22.30;68.40;;;;;;5064717;28;20505;-76
2023/06/06 11:36:21;;;;;;;6.35;2.83;;;22.30;67.70;;;;;;5067967;28;20077;-76
2023/06/06 11:38:46;;;;;;;3.72;2.60;;;22.30;67.70;;;;;;5070324;28;20117;-75
2023/06/06 11:41:12;;;;;;;4.45;2.70;;;22.30;67.60;;;;;;5066050;28;20112;-76
2023/06/06 11:43:48;;;;;;;8.10;3.72;;;22.30;66.50;;;;;;5069616;28;20048;-74
2023/06/06 11:46:15;;;;;;;5.25;2.70;;;22.50;66.90;;;;;;5068314;28;20325;-76
2023/06/06 11:48:41;;;;;;;4.82;2.97;;;22.50;65.30;;;;;;5067496;28;20020;-76
2023/06/06 11:51:25;;;;;;;4.68;2.88;;;22.60;65.10;;;;;;5069284;28;20025;-76
2023/06/06 11:53:51;;;;;;;9.30;2.83;;;22.70;65.60;;;;;;5064080;28;20364;-76
2023/06/06 11:56:17;;;;;;;4.75;3.45;;;22.70;65.90;;;;;;5070493;28;20039;-76
2023/06/06 11:58:43;;;;;;;4.53;2.90;;;22.70;65.60;;;;;;5067861;28;20025;-76
2023/06/06 12:01:10;;;;;;;5.13;2.90;;;22.80;65.00;;;;;;5068969;28;20085;-76
2023/06/06 12:03:38;;;;;;;4.25;3.00;;;22.80;64.30;;;;;;5069842;28;20058;-75
2023/06/06 12:06:05;;;;;;;6.20;3.10;;;22.70;63.20;;;;;;5071613;28;20021;-76
2023/06/06 12:08:36;;;;;;;6.43;2.80;;;22.80;63.20;;;;;;5084289;28;20024;-75
2023/06/06 12:11:26;;;;;;;4.13;2.50;;;22.80;62.90;;;;;;5066752;28;20222;-74
2023/06/06 12:13:52;;;;;;;5.65;3.30;;;22.80;62.30;;;;;;5068707;28;20025;-75
2023/06/06 12:16:26;;;;;;;3.80;3.08;;;22.80;62.20;;;;;;5069354;28;20505;-75
2023/06/06 12:18:54;;;;;;;8.07;2.70;;;22.90;62.80;;;;;;5068807;28;20032;-76
2023/06/06 12:21:20;;;;;;;8.73;3.42;;;22.90;62.30;;;;;;5067342;28;20033;-75
2023/06/06 12:23:47;;;;;;;4.13;2.88;;;23.00;62.20;;;;;;5065561;28;20234;-75
2023/06/06 12:26:15;;;;;;;6.85;2.78;;;23.00;62.30;;;;;;5064758;28;20124;-75
2023/06/06 12:29:00;;;;;;;5.65;3.17;;;23.10;63.10;;;;;;5066706;28;20013;-75
2023/06/06 12:31:27;;;;;;;7.70;3.65;;;23.20;64.10;;;;;;5077961;28;20033;-74
2023/06/06 12:33:56;;;;;;;8.68;3.45;;;23.20;63.40;;;;;;5065837;28;24861;-75
2023/06/06 12:36:25;;;;;;;6.80;4.78;;;23.10;63.80;;;;;;5067148;28;20115;-74
2023/06/06 12:38:56;;;;;;;4.88;3.42;;;23.20;63.80;;;;;;5060249;28;20096;-74
2023/06/06 12:41:22;;;;;;;4.20;2.97;;;23.20;62.80;;;;;;5065787;28;20025;-76
2023/06/06 12:43:47;;;;;;;6.18;3.08;;;23.20;62.60;;;;;;5067779;28;20395;-74
2023/06/06 12:46:15;;;;;;;4.72;2.72;;;23.10;62.20;;;;;;5063269;28;20025;-75
2023/06/06 12:48:40;;;;;;;5.43;2.97;;;23.10;61.90;;;;;;5066606;28;20143;-75
2023/06/06 12:51:12;;;;;;;7.38;3.45;;;23.10;60.70;;;;;;5064591;28;20119;-76